Time;durP1;ratioP1;P1;durP2;ratioP2;P2;SDS_P1;SDS_P2;PMS_P1;PMS_P2;Temp;Humidity;BMP_temperature;BMP_pressure;BME280_temperature;BME280_humidity;BME280_pressure;Samples;Min_cycle;Max_cycle;Signal;HPM_P1;HPM_P2
2021/03/31 00:00:34;;;;;;;12.35;6.67;;;;;;;8.16;39.90;101750.02;1683847;84;21248;-56
2021/03/31 00:03:10;;;;;;;9.88;5.83;;;;;;;8.16;39.85;101753.95;1697271;82;21182;-56
2021/03/31 00:05:37;;;;;;;10.95;6.62;;;;;;;8.15;39.75;101752.23;1732972;81;21199;-57
2021/03/31 00:08:05;;;;;;;10.53;6.55;;;;;;;8.12;39.83;101748.01;1688672;81;21625;-56
2021/03/31 00:10:38;;;;;;;11.57;6.75;;;;;;;8.12;39.92;101752.37;1730311;81;21388;-57
2021/03/31 00:13:05;;;;;;;15.20;7.45;;;;;;;8.10;39.94;101752.92;1735551;81;21177;-56
2021/03/31 00:15:33;;;;;;;10.43;6.17;;;;;;;8.07;40.06;101746.51;1697599;82;21187;-56
2021/03/31 00:18:08;;;;;;;13.90;7.15;;;;;;;8.07;40.31;101745.20;1701785;82;21657;-56
2021/03/31 00:31:16;;;;;;;9.80;6.15;;;;;;;7.89;40.69;101729.91;1849822;76;22859;-54
2021/03/31 00:33:44;;;;;;;13.83;7.70;;;;;;;7.81;40.83;101735.49;1824226;77;21143;-55
2021/03/31 00:36:13;;;;;;;14.45;8.13;;;;;;;7.82;40.90;101729.34;1869605;76;21198;-54
2021/03/31 00:38:41;;;;;;;12.53;6.70;;;;;;;7.85;40.88;101739.69;1827060;76;21171;-55
2021/03/31 00:41:10;;;;;;;15.03;8.95;;;;;;;7.87;40.75;101740.45;1818845;76;21174;-55
2021/03/31 00:43:56;;;;;;;11.38;6.53;;;;;;;7.91;40.82;101725.43;1799861;77;22618;-54
2021/03/31 00:46:24;;;;;;;12.07;7.83;;;;;;;7.90;40.91;101729.83;1767019;80;21196;-55
2021/03/31 00:48:52;;;;;;;10.75;7.60;;;;;;;7.92;41.00;101733.70;1776757;80;21213;-55
2021/03/31 00:51:20;;;;;;;11.53;6.72;;;;;;;7.93;41.08;101730.97;1688160;83;21166;-55
2021/03/31 00:53:50;;;;;;;11.80;6.87;;;;;;;7.96;41.15;101723.44;1717179;82;21597;-55
2021/03/31 00:56:17;;;;;;;15.43;8.70;;;;;;;7.99;41.11;101729.38;1712250;81;21495;-55
2021/03/31 00:58:45;;;;;;;14.53;8.03;;;;;;;8.02;41.02;101728.84;1715288;81;21145;-55
2021/03/31 01:01:13;;;;;;;12.15;8.15;;;;;;;8.02;40.99;101723.16;1716126;81;21201;-55
2021/03/31 01:03:41;;;;;;;10.75;7.45;;;;;;;7.99;41.24;101721.98;1739876;81;21079;-54
2021/03/31 01:06:09;;;;;;;13.40;8.83;;;;;;;8.04;41.35;101728.33;1714554;81;21723;-55
2021/03/31 01:08:37;;;;;;;15.50;8.40;;;;;;;8.06;41.29;101723.86;1740363;81;21186;-56
2021/03/31 01:11:07;;;;;;;11.68;7.87;;;;;;;8.06;41.23;101710.28;1713436;82;21176;-56
2021/03/31 01:14:07;;;;;;;15.50;8.25;;;;;;;8.06;41.25;101710.28;1717073;81;21232;-57
2021/03/31 01:16:54;;;;;;;14.78;8.20;;;;;;;8.05;41.20;101707.26;1717030;82;21182;-56
2021/03/31 01:19:41;;;;;;;14.73;8.68;;;;;;;8.03;41.44;101699.09;1714811;82;21216;-57
2021/03/31 01:22:44;;;;;;;11.85;7.15;;;;;;;8.02;41.37;101698.70;1711375;82;21118;-57
2021/03/31 01:25:29;;;;;;;15.08;7.92;;;;;;;7.99;41.52;101697.93;1719424;82;21563;-56
2021/03/31 01:28:11;;;;;;;13.50;7.72;;;;;;;7.93;41.63;101699.52;1703795;82;21218;-56
2021/03/31 01:30:56;;;;;;;15.03;7.58;;;;;;;7.90;41.82;101699.70;1709996;82;21195;-56
2021/03/31 01:33:39;;;;;;;13.00;7.42;;;;;;;7.89;41.99;101698.45;1715091;82;21162;-57
2021/03/31 01:36:11;;;;;;;11.95;7.65;;;;;;;7.88;41.88;101702.83;1711698;81;21172;-57
2021/03/31 01:38:39;;;;;;;12.05;7.53;;;;;;;7.88;42.05;101701.98;1687129;82;21273;-56
2021/03/31 01:41:06;;;;;;;12.93;7.65;;;;;;;7.87;42.03;101708.14;1720424;82;21273;-57
2021/03/31 01:43:34;;;;;;;13.50;8.30;;;;;;;7.87;42.16;101699.84;1683285;83;21208;-57
2021/03/31 01:46:03;;;;;;;12.10;8.23;;;;;;;7.89;42.29;101699.30;1762489;79;21161;-57
2021/03/31 01:48:31;;;;;;;14.18;7.62;;;;;;;7.90;42.25;101694.45;1751322;80;21168;-57
2021/03/31 01:51:06;;;;;;;11.43;7.90;;;;;;;7.92;42.33;101694.38;1758865;79;21137;-57
2021/03/31 01:53:35;;;;;;;12.63;7.87;;;;;;;7.93;42.41;101692.97;1748392;80;22002;-55
2021/03/31 01:56:05;;;;;;;14.07;8.55;;;;;;;7.93;42.42;101682.48;1749699;79;21168;-57
2021/03/31 01:58:34;;;;;;;13.88;7.90;;;;;;;7.96;42.61;101680.20;1743096;79;21153;-56
2021/03/31 02:01:03;;;;;;;10.98;7.20;;;;;;;7.97;42.54;101676.19;1759579;79;21168;-57
2021/03/31 02:03:30;;;;;;;15.35;8.43;;;;;;;7.98;42.86;101676.59;1744677;80;21191;-56
2021/03/31 02:05:58;;;;;;;14.45;8.10;;;;;;;7.96;43.02;101671.86;1759464;80;21309;-56
2021/03/31 02:08:26;;;;;;;12.13;7.08;;;;;;;7.98;43.09;101668.73;1747359;80;21169;-56
2021/03/31 02:10:53;;;;;;;14.30;7.30;;;;;;;8.01;43.25;101665.09;1742061;80;21225;-56
2021/03/31 02:13:21;;;;;;;14.40;7.37;;;;;;;8.01;43.28;101671.64;1700461;82;21194;-56
2021/03/31 02:15:51;;;;;;;12.33;7.83;;;;;;;8.02;43.61;101666.80;1694100;82;21190;-56
2021/03/31 02:18:19;;;;;;;11.45;7.47;;;;;;;7.99;43.40;101674.34;1761730;79;21228;-57
2021/03/31 02:20:47;;;;;;;12.50;6.95;;;;;;;7.93;43.51;101666.77;1754985;80;21210;-56
2021/03/31 02:23:14;;;;;;;12.82;7.60;;;;;;;7.94;43.58;101671.09;1740158;81;21133;-56
2021/03/31 02:25:42;;;;;;;14.53;7.75;;;;;;;7.94;43.74;101678.95;1743261;80;21192;-56
2021/03/31 02:28:10;;;;;;;17.12;8.65;;;;;;;7.93;44.27;101675.09;1755356;79;21117;-56
2021/03/31 02:30:37;;;;;;;13.35;7.95;;;;;;;7.90;44.40;101665.62;1741972;80;21959;-57
2021/03/31 02:33:07;;;;;;;16.70;8.00;;;;;;;7.88;45.25;101672.69;1754449;79;21176;-56
2021/03/31 02:35:34;;;;;;;14.10;7.60;;;;;;;7.86;46.28;101665.37;1756270;80;21107;-57
2021/03/31 02:38:06;;;;;;;12.33;8.13;;;;;;;7.86;45.81;101661.44;1745337;79;21196;-56
2021/03/31 02:40:36;;;;;;;11.73;6.97;;;;;;;7.86;46.94;101664.53;1762826;79;21533;-56
2021/03/31 02:43:07;;;;;;;15.75;8.00;;;;;;;7.79;46.59;101663.50;1764325;79;21205;-56
2021/03/31 02:45:35;;;;;;;12.37;7.30;;;;;;;7.76;46.64;101667.57;1761361;80;21195;-56
2021/03/31 02:48:05;;;;;;;11.65;7.65;;;;;;;7.73;47.01;101667.75;1766623;79;21165;-56
2021/03/31 02:50:33;;;;;;;16.45;8.15;;;;;;;7.70;46.93;101663.09;1765987;79;21124;-55
2021/03/31 02:53:01;;;;;;;13.13;7.75;;;;;;;7.69;47.06;101665.34;1764947;79;21168;-55
2021/03/31 02:55:32;;;;;;;12.93;7.72;;;;;;;7.68;47.66;101665.77;1767898;79;21195;-55
2021/03/31 02:58:01;;;;;;;9.75;6.42;;;;;;;7.66;47.48;101662.86;1766496;79;21223;-55
2021/03/31 03:00:29;;;;;;;13.80;7.53;;;;;;;7.63;47.94;101657.28;1740327;80;21167;-55
2021/03/31 03:02:56;;;;;;;9.05;6.58;;;;;;;7.60;48.54;101657.45;1762346;79;21188;-55
2021/03/31 03:05:25;;;;;;;11.15;6.75;;;;;;;7.55;48.38;101652.42;1765092;80;21149;-55
2021/03/31 03:07:52;;;;;;;11.85;6.50;;;;;;;7.51;48.52;101652.16;1701722;82;21229;-56
2021/03/31 03:10:20;;;;;;;14.63;7.97;;;;;;;7.49;48.90;101648.78;1759735;80;21548;-55
2021/03/31 03:12:54;;;;;;;13.40;7.10;;;;;;;7.46;49.68;101644.98;1749737;80;21212;-55
2021/03/31 03:15:25;;;;;;;12.45;7.70;;;;;;;7.44;50.20;101642.44;1763391;79;21164;-58
2021/03/31 03:17:52;;;;;;;11.25;7.20;;;;;;;7.40;49.99;101643.98;1771337;79;21141;-56
2021/03/31 03:20:20;;;;;;;15.23;7.33;;;;;;;7.37;50.60;101638.88;1764713;79;21859;-56
2021/03/31 03:22:49;;;;;;;11.08;6.67;;;;;;;7.36;50.73;101641.97;1773155;79;21125;-56
2021/03/31 03:25:19;;;;;;;9.83;7.15;;;;;;;7.34;51.11;101637.24;1764022;79;21250;-55
2021/03/31 03:27:47;;;;;;;9.95;7.00;;;;;;;7.34;51.77;101639.86;1763184;80;21143;-56
2021/03/31 03:30:17;;;;;;;11.57;7.60;;;;;;;7.35;51.25;101638.11;1767974;79;21184;-56
2021/03/31 03:32:49;;;;;;;9.50;6.72;;;;;;;7.36;51.40;101642.41;1762521;79;21189;-57
2021/03/31 03:35:18;;;;;;;14.93;6.75;;;;;;;7.35;51.15;101636.34;1738833;80;21188;-57
2021/03/31 03:37:46;;;;;;;11.85;6.83;;;;;;;7.37;51.45;101636.27;1769990;79;21184;-56
2021/03/31 03:40:16;;;;;;;15.28;7.33;;;;;;;7.36;51.51;101632.81;1744528;80;21192;-57
2021/03/31 03:42:44;;;;;;;14.18;6.80;;;;;;;7.36;51.68;101628.88;1760239;79;21175;-57
2021/03/31 03:45:13;;;;;;;12.85;6.40;;;;;;;7.39;51.41;101634.42;1737065;79;21231;-56
2021/03/31 03:47:40;;;;;;;13.18;7.70;;;;;;;7.38;51.83;101635.33;1706275;82;21185;-56
2021/03/31 03:50:13;;;;;;;14.55;7.67;;;;;;;7.37;51.65;101630.56;1737244;80;21487;-57
2021/03/31 03:52:43;;;;;;;14.78;7.90;;;;;;;7.37;52.05;101625.79;1768060;80;21172;-57
2021/03/31 03:55:20;;;;;;;13.43;7.53;;;;;;;7.37;51.97;101630.56;1742302;80;21196;-56
2021/03/31 03:57:48;;;;;;;10.88;6.83;;;;;;;7.36;51.82;101622.34;1766601;80;21437;-55
2021/03/31 04:00:22;;;;;;;11.33;6.25;;;;;;;7.36;52.27;101618.41;1771561;79;21240;-56
2021/03/31 04:02:55;;;;;;;11.25;6.65;;;;;;;7.38;52.17;101620.92;1762755;79;21193;-56
2021/03/31 04:05:24;;;;;;;13.32;7.67;;;;;;;7.41;52.66;101619.48;1770382;79;21208;-57
2021/03/31 04:07:52;;;;;;;13.40;7.22;;;;;;;7.43;52.22;101616.31;1756103;79;21197;-58
2021/03/31 04:10:23;;;;;;;12.00;7.28;;;;;;;7.48;52.07;101618.28;1740253;79;21196;-58
2021/03/31 04:12:51;;;;;;;11.65;6.40;;;;;;;7.52;51.97;101610.66;1763054;80;21195;-58
2021/03/31 04:15:20;;;;;;;13.38;7.72;;;;;;;7.56;51.84;101616.13;1773156;79;21575;-57
2021/03/31 04:17:47;;;;;;;15.93;7.92;;;;;;;7.58;51.84;101619.98;1779129;79;21163;-58
2021/03/31 04:20:19;;;;;;;16.17;7.08;;;;;;;7.61;52.06;101621.99;1762952;79;21196;-57
2021/03/31 04:22:47;;;;;;;10.50;6.87;;;;;;;7.63;51.88;101619.30;1680340;83;22427;-58
2021/03/31 04:25:17;;;;;;;13.38;7.90;;;;;;;7.67;51.60;101627.42;1728621;80;21187;-59
2021/03/31 04:27:48;;;;;;;12.35;7.22;;;;;;;7.70;51.86;101618.55;1774911;79;21158;-58
2021/03/31 04:30:17;;;;;;;10.70;6.40;;;;;;;7.73;51.34;101617.09;1762394;80;21120;-58
2021/03/31 04:32:48;;;;;;;12.50;6.85;;;;;;;7.75;51.60;101620.48;1764607;79;21778;-59
2021/03/31 04:35:18;;;;;;;13.48;6.70;;;;;;;7.75;51.39;101617.86;1736916;80;21215;-58
2021/03/31 04:37:47;;;;;;;13.45;7.78;;;;;;;7.73;50.93;101619.27;1760798;80;21223;-58
2021/03/31 04:40:18;;;;;;;12.05;7.17;;;;;;;7.70;51.53;101622.48;1744006;80;21192;-59
2021/03/31 04:42:46;;;;;;;13.18;7.20;;;;;;;7.68;51.79;101623.86;1754251;79;21615;-59
2021/03/31 04:45:16;;;;;;;22.82;8.33;;;;;;;7.66;52.25;101619.63;1737819;80;21148;-59
2021/03/31 04:47:43;;;;;;;12.95;7.50;;;;;;;7.65;52.75;101614.86;1772750;79;21265;-59
2021/03/31 04:50:13;;;;;;;12.10;7.47;;;;;;;7.65;52.44;101608.75;1764131;79;21211;-59
2021/03/31 04:52:41;;;;;;;12.47;7.97;;;;;;;7.62;53.11;101610.60;1738847;79;21144;-58
2021/03/31 04:55:10;;;;;;;13.40;7.80;;;;;;;7.59;53.78;101609.91;1761592;79;21631;-59
2021/03/31 04:57:38;;;;;;;13.95;7.42;;;;;;;7.59;54.13;101613.84;1765914;79;21162;-57
2021/03/31 05:00:08;;;;;;;12.50;7.90;;;;;;;7.59;54.59;101616.45;1775206;79;21323;-58
2021/03/31 05:02:35;;;;;;;17.25;8.75;;;;;;;7.58;54.91;101614.31;1745083;80;21235;-58
2021/03/31 05:05:04;;;;;;;15.25;8.40;;;;;;;7.59;54.95;101617.30;1769074;79;21652;-59
2021/03/31 05:07:32;;;;;;;12.65;8.68;;;;;;;7.57;55.30;101616.52;1763081;79;22706;-59
2021/03/31 05:10:00;;;;;;;13.45;8.05;;;;;;;7.55;56.20;101613.61;1770498;79;21235;-58
2021/03/31 05:12:27;;;;;;;16.12;8.80;;;;;;;7.54;55.78;101609.28;1760034;78;22203;-59
2021/03/31 05:14:56;;;;;;;14.58;8.30;;;;;;;7.53;55.95;101611.50;1764260;79;21216;-59
2021/03/31 05:17:25;;;;;;;16.65;9.38;;;;;;;7.53;56.25;101621.53;1768775;79;21172;-59
2021/03/31 05:19:53;;;;;;;15.90;8.80;;;;;;;7.58;56.15;101622.61;1769808;80;21144;-59
2021/03/31 05:22:20;;;;;;;14.03;7.28;;;;;;;7.56;55.99;101617.44;1758668;79;21197;-59
2021/03/31 05:24:48;;;;;;;17.12;8.48;;;;;;;7.55;55.71;101621.00;1705145;82;22257;-59
2021/03/31 05:27:17;;;;;;;17.07;8.85;;;;;;;7.54;56.10;101620.59;1760795;79;21216;-58
2021/03/31 05:29:45;;;;;;;17.25;9.60;;;;;;;7.55;56.34;101615.76;1769699;79;21116;-59
2021/03/31 05:32:13;;;;;;;14.73;8.33;;;;;;;7.56;56.59;101618.75;1736954;79;21203;-58
2021/03/31 05:34:41;;;;;;;14.93;8.83;;;;;;;7.56;56.52;101616.59;1738246;79;21211;-58
2021/03/31 05:37:12;;;;;;;15.43;9.50;;;;;;;7.56;56.79;101624.45;1762539;79;21223;-58
2021/03/31 05:39:41;;;;;;;16.57;9.13;;;;;;;7.55;57.21;101611.83;1763964;79;21279;-58
2021/03/31 05:42:10;;;;;;;13.98;7.90;;;;;;;7.55;57.04;101607.90;1772515;79;21501;-59
2021/03/31 05:44:38;;;;;;;14.58;7.58;;;;;;;7.56;57.18;101605.65;1725380;81;21191;-58
2021/03/31 05:47:06;;;;;;;12.95;8.78;;;;;;;7.60;57.24;101599.36;1736827;80;21172;-58
2021/03/31 05:49:34;;;;;;;13.35;7.37;;;;;;;7.59;57.27;101598.95;1721095;81;21964;-59
2021/03/31 05:52:03;;;;;;;12.90;8.28;;;;;;;7.60;57.26;101595.90;1693631;80;22388;-59
2021/03/31 05:54:30;;;;;;;14.98;8.63;;;;;;;7.60;57.53;101598.05;1741456;80;21212;-59
2021/03/31 05:56:58;;;;;;;15.32;8.48;;;;;;;7.62;57.30;101601.44;1738581;80;21204;-58
2021/03/31 05:59:27;;;;;;;12.73;8.05;;;;;;;7.65;57.46;101591.72;1712083;80;21227;-59
2021/03/31 06:01:55;;;;;;;14.35;7.87;;;;;;;7.68;57.18;101595.04;1734775;80;21160;-58
2021/03/31 06:04:23;;;;;;;14.78;8.93;;;;;;;7.70;57.16;101589.73;1743157;80;21240;-57
2021/03/31 06:06:51;;;;;;;12.30;8.10;;;;;;;7.75;57.29;101591.66;1737227;80;21240;-56
2021/03/31 06:09:19;;;;;;;12.73;7.92;;;;;;;7.77;57.27;101593.30;1726415;81;21243;-59
2021/03/31 06:11:57;;;;;;;11.90;7.28;;;;;;;7.84;57.16;101587.77;1736833;81;21184;-58
2021/03/31 06:14:36;;;;;;;14.55;7.83;;;;;;;7.91;57.14;101589.98;1733314;80;22112;-59
2021/03/31 06:17:11;;;;;;;15.78;8.63;;;;;;;7.97;57.13;101588.86;1738844;80;21247;-59
2021/03/31 06:19:43;;;;;;;13.38;9.40;;;;;;;8.01;56.66;101591.70;1732380;80;21217;-59
2021/03/31 06:25:11;;;;;;;15.30;9.80;;;;;;;8.06;56.21;101586.23;1721321;80;21226;-59
2021/03/31 06:27:40;;;;;;;12.78;8.18;;;;;;;8.05;56.35;101580.12;1735390;80;21213;-58
2021/03/31 06:30:11;;;;;;;19.90;11.78;;;;;;;8.08;56.71;101580.44;1734151;81;21193;-59
2021/03/31 06:32:39;;;;;;;18.25;11.22;;;;;;;8.11;56.24;101584.22;1720523;82;21179;-58
2021/03/31 06:35:19;;;;;;;19.23;14.78;;;;;;;8.11;56.41;101585.06;1738214;80;21172;-60
2021/03/31 06:37:48;;;;;;;24.43;15.20;;;;;;;8.16;56.42;101578.28;1738707;80;21246;-59
2021/03/31 06:40:48;;;;;;;24.85;14.15;;;;;;;8.18;56.17;101579.05;1725668;80;21628;-58
2021/03/31 06:43:14;;;;;;;21.25;14.07;;;;;;;8.21;56.23;101580.68;1726992;80;21162;-57
2021/03/31 06:46:38;;;;;;;20.10;11.88;;;;;;;8.26;56.23;101567.70;1873112;74;22830;-57
2021/03/31 06:49:01;;;;;;;21.07;12.28;;;;;;;8.28;56.04;101578.12;1774521;80;21222;-57
2021/03/31 06:51:31;;;;;;;16.97;9.90;;;;;;;8.31;55.68;101580.12;1731568;78;21204;-59
2021/03/31 06:54:22;;;;;;;13.38;9.30;;;;;;;8.32;55.93;101573.95;1805109;78;21061;-58
2021/03/31 06:56:55;;;;;;;14.55;8.80;;;;;;;8.35;55.99;101579.05;1752921;80;21148;-59
2021/03/31 06:59:31;;;;;;;18.27;10.40;;;;;;;8.41;55.94;101571.80;1782481;78;21300;-58
2021/03/31 07:02:02;;;;;;;16.57;10.15;;;;;;;8.48;55.87;101575.34;1784585;78;21141;-59
2021/03/31 07:04:31;;;;;;;17.98;11.33;;;;;;;8.59;55.96;101573.92;1754133;80;21623;-60
2021/03/31 07:07:06;;;;;;;13.60;9.15;;;;;;;8.69;56.24;101562.88;1782996;78;21084;-60
2021/03/31 07:09:35;;;;;;;16.90;9.98;;;;;;;8.83;55.84;101571.32;1810695;78;27031;-60
2021/03/31 07:12:20;;;;;;;15.50;9.93;;;;;;;8.92;55.68;101564.72;1782623;78;21194;-58
2021/03/31 07:14:49;;;;;;;16.25;9.40;;;;;;;9.00;55.20;101561.69;1751175;78;21226;-58
2021/03/31 07:17:23;;;;;;;16.20;9.38;;;;;;;9.05;55.08;101553.09;1782803;80;21185;-58
2021/03/31 07:19:51;;;;;;;13.95;8.35;;;;;;;9.07;55.18;101552.06;1782798;80;21169;-59
2021/03/31 07:22:19;;;;;;;17.37;9.05;;;;;;;9.15;54.97;101549.02;1752614;80;22290;-58
2021/03/31 07:24:48;;;;;;;14.60;9.25;;;;;;;9.20;54.70;101545.68;1749264;80;21175;-57
2021/03/31 07:27:16;;;;;;;18.95;13.98;;;;;;;9.26;55.20;101545.79;1782995;78;21185;-57
2021/03/31 07:32:35;;;;;;;;;;;;;;;9.37;54.85;101536.85;1783333;78;21145;-57
2021/03/31 07:35:06;;;;;;;27.75;14.23;;;;;;;9.44;54.67;101546.06;1780071;79;20301;-57
2021/03/31 07:37:34;;;;;;;18.65;12.28;;;;;;;9.42;54.97;101547.11;1760885;78;21227;-57
2021/03/31 07:40:05;;;;;;;21.07;11.68;;;;;;;9.44;55.06;101539.50;1754357;79;21215;-58
2021/03/31 07:42:34;;;;;;;14.60;9.23;;;;;;;9.50;54.61;101533.07;1761784;80;21226;-58
2021/03/31 07:45:02;;;;;;;16.20;8.95;;;;;;;9.51;54.48;101533.42;1750883;79;21204;-57
2021/03/31 07:47:30;;;;;;;16.85;11.35;;;;;;;9.50;54.46;101534.38;1755418;79;21116;-56
2021/03/31 07:49:57;;;;;;;16.70;9.83;;;;;;;9.48;54.89;101529.66;1739341;80;21167;-57
2021/03/31 07:52:56;;;;;;;18.80;11.12;;;;;;;9.51;54.81;101532.11;1759279;79;21204;-58
2021/03/31 07:55:34;;;;;;;18.12;10.58;;;;;;;9.53;54.87;101526.33;1757510;79;22616;-57
2021/03/31 07:58:25;;;;;;;16.12;9.93;;;;;;;9.55;54.59;101515.70;1758944;79;21436;-58
2021/03/31 08:01:01;;;;;;;16.15;10.03;;;;;;;9.54;54.85;101520.59;1761107;79;21199;-55
2021/03/31 08:03:37;;;;;;;19.00;9.80;;;;;;;9.58;54.77;101519.47;1738554;79;21247;-57
2021/03/31 08:06:14;;;;;;;14.83;9.43;;;;;;;9.58;54.96;101510.27;1733797;81;21191;-57
2021/03/31 08:08:51;;;;;;;14.55;9.75;;;;;;;9.63;55.08;101515.66;1757935;80;21127;-57
2021/03/31 08:11:44;;;;;;;14.40;9.60;;;;;;;9.67;55.17;101512.39;1781148;78;21216;-58
2021/03/31 08:14:13;;;;;;;16.42;9.03;;;;;;;9.72;55.13;101510.34;1750105;80;21163;-58
2021/03/31 08:16:48;;;;;;;16.00;10.00;;;;;;;9.79;55.18;101506.88;1783814;80;21194;-58
2021/03/31 08:19:19;;;;;;;17.73;10.38;;;;;;;9.87;54.94;101499.39;1750540;80;21241;-57
2021/03/31 08:21:50;;;;;;;18.07;10.65;;;;;;;9.92;54.73;101493.83;1781621;80;21418;-57
2021/03/31 08:24:18;;;;;;;25.32;10.45;;;;;;;9.94;54.79;101490.19;1749193;80;21409;-57
2021/03/31 08:26:48;;;;;;;17.82;10.32;;;;;;;9.99;54.80;101489.45;1751944;80;21172;-57
2021/03/31 08:29:25;;;;;;;14.43;9.35;;;;;;;10.06;55.02;101490.41;1750450;80;21231;-57
2021/03/31 08:31:58;;;;;;;13.98;8.93;;;;;;;10.13;54.93;101487.29;1750416;81;21159;-57
2021/03/31 08:34:31;;;;;;;18.32;11.38;;;;;;;10.20;54.66;101479.42;1756190;81;21206;-57
2021/03/31 08:37:02;;;;;;;15.45;10.40;;;;;;;10.27;54.47;101481.66;1788104;78;21123;-56
2021/03/31 08:39:29;;;;;;;16.60;11.22;;;;;;;10.31;54.35;101480.55;1782887;79;21191;-57
2021/03/31 08:41:58;;;;;;;19.07;12.50;;;;;;;10.36;53.97;101480.66;1752846;80;21190;-57
2021/03/31 08:44:31;;;;;;;18.17;10.75;;;;;;;10.42;54.40;101479.43;1783263;80;21170;-57
2021/03/31 08:47:21;;;;;;;18.77;11.40;;;;;;;10.49;54.16;101482.53;1792858;77;22213;-58
2021/03/31 08:49:51;;;;;;;16.27;10.75;;;;;;;10.53;54.19;101474.36;1784092;78;21193;-59
2021/03/31 08:52:23;;;;;;;16.65;11.53;;;;;;;10.57;54.08;101469.73;1795204;78;21187;-58
2021/03/31 08:54:52;;;;;;;18.57;11.38;;;;;;;10.65;54.17;101462.69;1785603;78;21856;-58
2021/03/31 08:57:23;;;;;;;16.35;10.70;;;;;;;10.74;54.21;101463.41;1787808;78;21174;-55
2021/03/31 08:59:57;;;;;;;20.85;12.20;;;;;;;10.84;54.33;101461.88;1751682;81;21207;-56
2021/03/31 09:02:43;;;;;;;17.80;11.50;;;;;;;10.96;54.13;101461.56;1793170;77;21206;-59
2021/03/31 09:05:12;;;;;;;;;;;;;;;11.07;53.87;101466.98;1795936;78;21211;-56
2021/03/31 09:07:41;;;;;;;16.60;11.12;;;;;;;11.15;53.27;101457.28;1793701;78;20980;-58
2021/03/31 09:10:12;;;;;;;17.65;11.12;;;;;;;11.12;53.25;101458.80;1796201;78;21215;-58
2021/03/31 09:12:41;;;;;;;16.00;10.70;;;;;;;11.19;53.42;101461.88;1813941;78;21193;-57
2021/03/31 09:15:11;;;;;;;18.02;10.70;;;;;;;11.26;53.06;101457.43;1795427;78;21220;-57
2021/03/31 09:17:39;;;;;;;18.67;11.80;;;;;;;11.31;52.77;101456.66;1795419;78;21575;-57
2021/03/31 09:20:09;;;;;;;19.20;11.33;;;;;;;11.33;52.27;101460.02;1782085;80;21164;-56
2021/03/31 09:22:36;;;;;;;18.23;11.12;;;;;;;11.33;52.23;101455.20;1788162;78;21179;-57
2021/03/31 09:25:08;;;;;;;17.73;11.43;;;;;;;11.30;52.70;101457.59;1786926;78;21223;-57
2021/03/31 09:27:38;;;;;;;17.82;11.50;;;;;;;11.37;52.91;101459.83;1791998;77;21214;-58
2021/03/31 09:30:14;;;;;;;15.78;10.58;;;;;;;11.40;52.80;101455.64;1809594;78;21096;-57
2021/03/31 09:32:50;;;;;;;15.57;11.47;;;;;;;11.45;52.62;101456.21;1783367;79;22262;-57
2021/03/31 09:35:16;;;;;;;17.30;11.08;;;;;;;11.51;52.73;101451.83;1779902;79;21231;-56
2021/03/31 09:37:47;;;;;;;16.52;11.22;;;;;;;11.58;52.89;101453.09;1786804;78;21354;-57
2021/03/31 09:40:26;;;;;;;21.40;10.82;;;;;;;11.67;52.44;101444.58;1822617;77;21139;-58
2021/03/31 09:42:58;;;;;;;19.17;10.03;;;;;;;11.75;52.11;101447.16;1746565;80;21208;-56
2021/03/31 09:45:27;;;;;;;15.72;9.50;;;;;;;11.82;52.26;101438.74;1813412;77;21686;-56
2021/03/31 09:47:56;;;;;;;16.35;10.95;;;;;;;11.92;51.65;101442.95;1775607;78;21139;-56
2021/03/31 09:50:25;;;;;;;15.63;11.05;;;;;;;11.96;51.55;101441.77;1743957;80;22133;-58
2021/03/31 09:52:56;;;;;;;19.20;11.68;;;;;;;12.03;51.43;101441.71;1794320;79;21223;-58
2021/03/31 09:55:23;;;;;;;21.62;11.90;;;;;;;12.13;51.33;101431.84;1779931;78;21239;-56
2021/03/31 09:57:52;;;;;;;18.32;10.18;;;;;;;12.24;51.19;101437.23;1768309;79;21226;-56
2021/03/31 10:00:21;;;;;;;15.90;10.40;;;;;;;12.33;50.91;101436.56;1771791;79;21227;-56
2021/03/31 10:02:49;;;;;;;20.48;11.70;;;;;;;12.41;50.20;101430.27;1745547;79;21291;-57
2021/03/31 10:05:22;;;;;;;23.27;13.90;;;;;;;12.49;50.28;101432.83;1781999;78;21268;-56
2021/03/31 10:08:06;;;;;;;20.88;13.93;;;;;;;12.56;49.80;101440.22;1783321;78;21526;-57
2021/03/31 10:10:51;;;;;;;18.77;11.65;;;;;;;12.63;50.16;101435.34;1777477;78;21226;-57
2021/03/31 10:13:21;;;;;;;17.65;11.10;;;;;;;12.73;49.45;101431.08;1754761;79;21214;-62
2021/03/31 10:16:03;;;;;;;16.27;9.40;;;;;;;12.79;48.72;101420.53;1775745;80;21229;-58
2021/03/31 10:18:32;;;;;;;15.15;10.20;;;;;;;12.82;47.95;101424.27;1792295;77;21180;-57
2021/03/31 10:21:04;;;;;;;15.30;9.90;;;;;;;12.85;48.00;101424.05;1772931;78;21785;-58
2021/03/31 10:23:38;;;;;;;13.10;9.58;;;;;;;12.90;48.00;101420.59;1798478;78;21486;-56
2021/03/31 10:26:27;;;;;;;;;;;;;;;12.98;47.89;101414.77;1773269;80;22086;-57
2021/03/31 10:29:01;;;;;;;14.40;8.70;;;;;;;13.03;47.47;101415.72;1785764;78;20273;-59
2021/03/31 10:31:36;;;;;;;15.38;10.05;;;;;;;13.00;47.58;101424.73;1799195;77;21463;-57
2021/03/31 10:34:06;;;;;;;15.08;10.45;;;;;;;13.05;47.60;101416.48;1804157;78;21235;-58
2021/03/31 10:50:20;;;;;;;15.32;9.93;;;;;;;13.47;46.36;101399.70;1731307;80;21206;-57
2021/03/31 10:52:51;;;;;;;17.67;10.18;;;;;;;13.52;46.36;101402.84;1740973;80;21231;-58
2021/03/31 10:55:17;;;;;;;16.90;9.18;;;;;;;13.54;46.40;101393.81;1780620;78;21199;-59
2021/03/31 10:57:45;;;;;;;16.00;10.13;;;;;;;13.58;46.05;101402.84;1784173;78;21682;-58
2021/03/31 11:00:15;;;;;;;16.15;10.90;;;;;;;13.55;45.93;101394.19;1790751;78;21224;-58
2021/03/31 11:02:43;;;;;;;17.48;9.00;;;;;;;13.51;46.35;101388.75;1723115;81;21600;-56
2021/03/31 11:05:11;;;;;;;16.52;10.18;;;;;;;13.49;46.28;101381.91;1752424;80;21671;-58
2021/03/31 11:07:39;;;;;;;17.23;11.10;;;;;;;13.52;46.55;101383.01;1752956;80;21216;-58
2021/03/31 11:10:08;;;;;;;15.08;9.98;;;;;;;13.53;46.43;101378.92;1759798;80;21149;-58
2021/03/31 11:12:39;;;;;;;17.12;10.08;;;;;;;13.54;46.50;101373.15;1752567;80;21244;-58
2021/03/31 11:15:10;;;;;;;14.28;10.40;;;;;;;13.59;46.60;101378.92;1755455;80;21200;-58
2021/03/31 11:25:58;;;;;;;15.50;11.35;;;;;;;13.74;46.59;101359.22;1749462;81;21214;-57
2021/03/31 11:28:26;;;;;;;18.10;11.12;;;;;;;13.80;46.45;101353.08;1752229;81;21635;-57
2021/03/31 11:30:55;;;;;;;14.60;10.58;;;;;;;13.82;46.51;101358.63;1750803;80;21199;-57
2021/03/31 11:33:23;;;;;;;18.82;11.33;;;;;;;13.85;46.40;101345.63;1732483;81;21249;-57
2021/03/31 11:35:52;;;;;;;21.30;11.20;;;;;;;13.88;46.44;101354.16;1744930;80;21196;-58
2021/03/31 11:38:19;;;;;;;16.90;11.08;;;;;;;13.89;46.23;101346.59;1733473;81;21269;-57
2021/03/31 11:40:47;;;;;;;22.93;11.08;;;;;;;13.89;46.28;101349.23;1751719;80;21196;-56
2021/03/31 11:43:15;;;;;;;19.65;11.73;;;;;;;13.91;46.18;101353.92;1756071;81;21217;-59
2021/03/31 11:45:42;;;;;;;16.65;11.22;;;;;;;13.90;46.38;101340.36;1756190;80;21269;-57
2021/03/31 11:48:10;;;;;;;19.17;11.68;;;;;;;13.91;46.41;101343.34;1754788;80;21631;-57
2021/03/31 11:50:38;;;;;;;29.82;12.45;;;;;;;13.94;46.65;101343.11;1738281;81;21194;-58
2021/03/31 11:53:06;;;;;;;19.60;12.10;;;;;;;14.02;46.69;101341.64;1736032;81;21647;-58
2021/03/31 11:55:34;;;;;;;22.87;12.20;;;;;;;14.12;46.73;101335.98;1737088;81;21216;-57
2021/03/31 11:58:02;;;;;;;21.73;12.63;;;;;;;14.23;46.67;101335.13;1753305;80;23246;-56
2021/03/31 12:00:30;;;;;;;22.50;12.10;;;;;;;14.29;46.27;101330.68;1751896;81;21172;-59
2021/03/31 12:02:58;;;;;;;23.40;12.78;;;;;;;14.33;46.18;101328.63;1751607;80;21199;-57
2021/03/31 12:05:26;;;;;;;17.82;12.10;;;;;;;14.36;46.08;101323.91;1750685;80;21235;-59
2021/03/31 12:07:54;;;;;;;15.53;11.55;;;;;;;14.40;45.99;101327.98;1748735;80;21188;-58
2021/03/31 12:10:21;;;;;;;17.77;11.15;;;;;;;14.42;46.06;101318.59;1732309;80;22021;-58
2021/03/31 12:12:48;;;;;;;19.98;13.13;;;;;;;14.46;46.24;101317.39;1739395;81;21219;-57
2021/03/31 12:15:17;;;;;;;18.62;13.00;;;;;;;14.53;46.29;101313.27;1733331;81;21219;-57
2021/03/31 12:17:45;;;;;;;29.12;15.15;;;;;;;14.58;46.34;101310.25;1735182;81;21222;-58